createdAt,value
2023-02-05T00:01:25.022Z,4.17
2023-02-05T00:03:51.628Z,5.47
2023-02-05T00:06:18.774Z,2.50
2023-02-05T00:08:45.369Z,3.83
2023-02-05T00:11:12.158Z,4.97
2023-02-05T00:13:40.202Z,3.57
2023-02-05T00:16:14.096Z,4.10
2023-02-05T00:18:40.874Z,3.77
2023-02-05T00:21:07.984Z,2.90
2023-02-05T00:23:35.626Z,4.37
2023-02-05T00:26:03.333Z,3.03
2023-02-05T00:28:35.530Z,3.73
2023-02-05T00:31:08.283Z,2.67
2023-02-05T00:33:34.999Z,3.43
2023-02-05T00:36:01.844Z,3.80
2023-02-05T00:38:28.407Z,4.40
2023-02-05T00:40:54.999Z,3.60
2023-02-05T00:43:21.741Z,4.13
2023-02-05T00:45:48.390Z,3.83
2023-02-05T00:48:14.976Z,2.37
2023-02-05T00:50:41.589Z,4.13
2023-02-05T00:53:08.137Z,3.77
2023-02-05T00:55:35.074Z,3.20
2023-02-05T00:58:01.822Z,2.03
2023-02-05T01:00:28.533Z,3.63
2023-02-05T01:02:55.486Z,2.37
2023-02-05T01:05:22.142Z,2.67
2023-02-05T01:07:48.804Z,3.70
2023-02-05T01:10:15.660Z,4.97
2023-02-05T01:12:42.266Z,3.57
2023-02-05T01:15:09.835Z,2.33
2023-02-05T01:17:36.377Z,3.33
2023-02-05T01:20:03.716Z,4.07
2023-02-05T01:22:30.299Z,2.83
2023-02-05T01:24:56.919Z,3.57
2023-02-05T01:27:24.370Z,3.63
2023-02-05T01:29:51.388Z,3.13
2023-02-05T01:32:18.788Z,3.53
2023-02-05T01:34:45.828Z,3.33
2023-02-05T01:37:12.448Z,7.90
2023-02-05T01:39:39.101Z,2.97
2023-02-05T01:42:18.352Z,3.47
2023-02-05T01:44:45.038Z,3.50
2023-02-05T01:47:11.601Z,2.60
2023-02-05T01:49:42.988Z,3.50
2023-02-05T01:52:16.666Z,2.87
2023-02-05T01:54:46.343Z,3.13
2023-02-05T01:57:22.139Z,5.50
2023-02-05T01:59:50.477Z,4.43
2023-02-05T02:02:17.692Z,3.87
2023-02-05T02:04:47.771Z,3.23
2023-02-05T02:07:17.247Z,3.43
2023-02-05T02:09:45.807Z,3.90
2023-02-05T02:12:19.209Z,4.13
2023-02-05T02:14:49.464Z,3.60
2023-02-05T02:17:18.027Z,3.17
2023-02-05T02:19:56.014Z,4.80
2023-02-05T02:22:49.815Z,5.00
2023-02-05T02:25:57.468Z,4.17
2023-02-05T02:28:27.938Z,3.47
2023-02-05T02:31:18.644Z,3.63
2023-02-05T02:33:54.985Z,5.30
2023-02-05T02:36:31.005Z,3.33
2023-02-05T02:39:31.811Z,2.77
2023-02-05T02:42:30.549Z,5.50
2023-02-05T02:45:00.200Z,2.77
2023-02-05T02:47:32.116Z,3.87
2023-02-05T02:50:03.011Z,3.43
2023-02-05T02:52:35.055Z,4.57
2023-02-05T02:55:07.796Z,5.73
2023-02-05T02:57:37.436Z,3.57
2023-02-05T03:00:09.477Z,3.20
2023-02-05T03:02:38.109Z,3.00
2023-02-05T03:05:10.792Z,3.87
2023-02-05T03:07:52.789Z,3.43
2023-02-05T03:10:33.217Z,4.30
2023-02-05T03:12:59.816Z,3.10
2023-02-05T03:15:26.415Z,4.10
2023-02-05T03:17:55.361Z,3.87
2023-02-05T03:20:32.916Z,5.23
2023-02-05T03:22:59.579Z,6.07
2023-02-05T03:25:28.845Z,4.13
2023-02-05T03:27:56.444Z,5.60
2023-02-05T03:30:29.465Z,5.53
2023-02-05T03:33:29.740Z,4.30
2023-02-05T03:36:08.317Z,4.53
2023-02-05T03:39:03.494Z,6.47
2023-02-05T03:41:57.923Z,5.37
2023-02-05T03:44:53.701Z,3.87
2023-02-05T03:47:55.224Z,5.37
2023-02-05T03:50:27.478Z,3.80
2023-02-05T03:53:12.264Z,4.37
2023-02-05T03:55:44.722Z,6.20
2023-02-05T03:58:27.419Z,4.70
2023-02-05T04:00:54.039Z,5.90
2023-02-05T04:03:20.850Z,4.50
2023-02-05T04:05:47.442Z,4.20
2023-02-05T04:08:15.051Z,6.27
2023-02-05T04:10:41.632Z,5.43
2023-02-05T04:13:08.196Z,6.20
2023-02-05T04:15:35.029Z,4.60
2023-02-05T04:18:02.048Z,3.93
2023-02-05T04:20:28.721Z,4.93
2023-02-05T04:22:55.279Z,4.53
2023-02-05T04:25:21.896Z,5.17
2023-02-05T04:27:48.495Z,4.60
2023-02-05T04:30:15.214Z,5.53
2023-02-05T04:32:41.763Z,7.87
2023-02-05T04:35:08.537Z,4.80
2023-02-05T04:37:35.082Z,6.23
2023-02-05T04:40:01.795Z,4.60
2023-02-05T04:42:28.332Z,4.27
2023-02-05T04:44:55.046Z,3.83
2023-02-05T04:47:21.891Z,4.80
2023-02-05T04:49:48.459Z,5.33
2023-02-05T04:52:15.017Z,5.97
2023-02-05T04:54:41.614Z,7.83
2023-02-05T04:57:08.343Z,5.67
2023-02-05T04:59:34.950Z,4.13
2023-02-05T05:02:01.542Z,4.13
2023-02-05T05:04:28.136Z,7.23
2023-02-05T05:06:54.678Z,8.33
2023-02-05T05:09:23.981Z,4.47
2023-02-05T05:11:56.102Z,5.60
2023-02-05T05:14:22.814Z,3.87
2023-02-05T05:16:50.036Z,5.33
2023-02-05T05:19:16.686Z,5.13
2023-02-05T05:21:43.229Z,7.50
2023-02-05T05:24:09.845Z,6.53
2023-02-05T05:26:37.930Z,6.13
2023-02-05T05:29:06.188Z,6.33
2023-02-05T05:31:32.738Z,6.20
2023-02-05T05:33:59.290Z,5.50
2023-02-05T05:36:25.874Z,4.67
2023-02-05T05:38:52.445Z,7.50
2023-02-05T05:41:43.762Z,5.63
2023-02-05T05:44:10.604Z,5.83
2023-02-05T05:46:37.198Z,6.33
2023-02-05T05:49:04.190Z,6.53
2023-02-05T05:51:32.512Z,7.80
2023-02-05T05:53:59.951Z,4.97
2023-02-05T05:56:26.579Z,6.53
2023-02-05T05:58:53.267Z,7.43
2023-02-05T06:01:22.487Z,6.83
2023-02-05T06:03:49.851Z,7.30
2023-02-05T06:06:16.510Z,6.10
2023-02-05T06:08:43.178Z,6.20
2023-02-05T06:11:09.836Z,6.07
2023-02-05T06:13:36.543Z,7.10
2023-02-05T06:16:03.963Z,6.33
2023-02-05T06:18:31.002Z,5.73
2023-02-05T06:20:57.887Z,6.40
2023-02-05T06:23:24.428Z,4.33
2023-02-05T06:25:51.045Z,8.53
2023-02-05T06:28:17.625Z,5.67
2023-02-05T06:30:44.296Z,5.30
2023-02-05T06:33:12.665Z,6.37
2023-02-05T06:35:40.211Z,6.23
2023-02-05T06:38:06.781Z,6.63
2023-02-05T06:40:33.330Z,6.77
2023-02-05T06:42:59.933Z,5.87
2023-02-05T06:45:26.605Z,5.90
2023-02-05T06:47:55.916Z,4.63
2023-02-05T06:50:23.502Z,8.30
2023-02-05T06:52:51.215Z,5.33
2023-02-05T06:55:18.493Z,5.73
2023-02-05T06:57:45.051Z,5.30
2023-02-05T07:00:12.586Z,7.13
2023-02-05T07:02:39.221Z,4.50
2023-02-05T07:05:06.134Z,6.97
2023-02-05T07:07:33.598Z,5.37
2023-02-05T07:10:00.853Z,4.67
2023-02-05T07:12:27.523Z,4.70
2023-02-05T07:14:54.128Z,4.03
2023-02-05T07:17:20.926Z,4.20
2023-02-05T07:19:47.480Z,4.20
2023-02-05T07:22:14.998Z,4.57
2023-02-05T07:24:41.662Z,5.83
2023-02-05T07:27:08.229Z,6.63
2023-02-05T07:29:34.812Z,5.67
2023-02-05T07:32:01.370Z,7.23
2023-02-05T07:34:27.982Z,6.80
2023-02-05T07:36:54.540Z,8.23
2023-02-05T07:39:21.124Z,6.73
2023-02-05T07:41:48.036Z,6.60
2023-02-05T07:44:14.738Z,4.43
2023-02-05T07:46:41.342Z,4.87
2023-02-05T07:49:08.025Z,5.10
2023-02-05T07:51:35.368Z,5.80
2023-02-05T07:54:09.296Z,5.23
2023-02-05T07:56:36.123Z,5.77
2023-02-05T07:59:02.711Z,5.43
2023-02-05T08:01:29.712Z,7.77
2023-02-05T08:03:56.426Z,5.50
2023-02-05T08:06:23.119Z,4.53
2023-02-05T08:08:50.005Z,8.53
2023-02-05T08:11:17.711Z,6.43
2023-02-05T08:13:45.604Z,6.70
2023-02-05T08:16:15.673Z,6.00
2023-02-05T08:18:42.685Z,7.07
2023-02-05T08:21:09.276Z,5.07
2023-02-05T08:23:35.960Z,5.37
2023-02-05T08:26:02.526Z,5.53
2023-02-05T08:28:29.554Z,5.97
2023-02-05T08:30:56.848Z,6.07
2023-02-05T08:33:23.691Z,4.33
2023-02-05T08:35:50.452Z,3.73
2023-02-05T08:38:17.118Z,4.93
2023-02-05T08:40:43.686Z,3.80
2023-02-05T08:43:10.351Z,4.87
2023-02-05T08:45:37.540Z,3.47
2023-02-05T08:48:04.542Z,4.07
2023-02-05T08:50:31.196Z,3.50
2023-02-05T08:52:57.857Z,3.70
2023-02-05T08:55:24.472Z,4.60
2023-02-05T08:57:51.029Z,4.57
2023-02-05T09:00:17.946Z,3.37
2023-02-05T09:02:44.722Z,3.47
2023-02-05T09:05:11.566Z,4.10
2023-02-05T09:07:39.489Z,3.37
2023-02-05T09:10:11.411Z,4.90
2023-02-05T09:12:38.288Z,4.83
2023-02-05T09:15:06.161Z,4.40
2023-02-05T09:17:32.696Z,4.83
2023-02-05T09:19:59.310Z,7.53
2023-02-05T09:22:25.888Z,4.13
2023-02-05T09:24:52.483Z,6.07
2023-02-05T09:27:19.039Z,4.37
2023-02-05T09:29:45.683Z,4.03
2023-02-05T09:32:12.303Z,5.50
2023-02-05T09:34:38.863Z,6.27
2023-02-05T09:37:05.426Z,4.77
2023-02-05T09:40:17.295Z,3.93
2023-02-05T09:42:39.052Z,3.57
2023-02-05T09:45:24.937Z,4.57
2023-02-05T09:48:34.279Z,4.30
2023-02-05T09:51:01.676Z,4.23
2023-02-05T09:53:35.413Z,5.47
2023-02-05T09:56:04.124Z,4.40
2023-02-05T09:58:35.902Z,5.00
2023-02-05T10:01:06.482Z,4.67
2023-02-05T10:03:54.633Z,4.83
2023-02-05T10:06:35.217Z,3.87
2023-02-05T10:09:30.729Z,3.63
2023-02-05T10:12:19.087Z,4.37
2023-02-05T10:14:49.268Z,4.07
2023-02-05T10:17:42.807Z,4.20
2023-02-05T10:20:40.029Z,4.30
2023-02-05T10:23:28.020Z,3.47
2023-02-05T10:26:08.921Z,6.40
2023-02-05T10:29:03.831Z,3.70
2023-02-05T10:31:59.751Z,3.43
2023-02-05T10:34:49.449Z,3.80
2023-02-05T10:37:20.057Z,5.17
2023-02-05T10:39:48.242Z,5.10
2023-02-05T10:42:40.308Z,3.67
2023-02-05T10:45:19.279Z,6.27
2023-02-05T10:48:25.313Z,4.30
2023-02-05T10:51:11.089Z,3.20
2023-02-05T10:53:37.735Z,5.43
2023-02-05T10:56:05.009Z,4.70
2023-02-05T10:58:39.959Z,3.43
2023-02-05T11:01:38.745Z,7.57
2023-02-05T11:04:17.187Z,3.40
2023-02-05T11:06:53.487Z,5.63
2023-02-05T11:09:26.097Z,2.47
2023-02-05T11:11:58.709Z,6.23
2023-02-05T11:14:33.955Z,3.63
2023-02-05T11:17:09.008Z,4.77
2023-02-05T11:19:36.554Z,5.50
2023-02-05T11:22:05.257Z,4.47
2023-02-05T11:24:39.325Z,5.27
2023-02-05T11:27:27.864Z,3.33
2023-02-05T11:29:56.932Z,4.17
2023-02-05T11:32:35.074Z,4.97
2023-02-05T11:35:32.543Z,3.70
2023-02-05T11:38:09.792Z,4.60
2023-02-05T11:40:37.499Z,4.33
2023-02-05T11:43:08.119Z,4.57
2023-02-05T11:45:39.625Z,3.77
2023-02-05T11:48:25.696Z,4.00
2023-02-05T11:50:52.599Z,3.77
2023-02-05T11:53:20.370Z,4.03
2023-02-05T11:55:54.666Z,3.63
2023-02-05T11:58:37.117Z,4.03
2023-02-05T12:01:19.907Z,3.83
2023-02-05T12:04:18.029Z,5.00
2023-02-05T12:06:57.419Z,4.83
2023-02-05T12:09:27.253Z,4.30
2023-02-05T12:12:08.529Z,4.93
2023-02-05T12:15:10.512Z,3.80
2023-02-05T12:18:05.384Z,3.87
2023-02-05T12:20:49.072Z,5.03
2023-02-05T12:23:45.745Z,3.23
2023-02-05T12:26:20.128Z,3.93
2023-02-05T12:29:42.347Z,3.67
2023-02-05T12:32:52.115Z,3.97
2023-02-05T12:35:45.056Z,4.10
2023-02-05T12:38:40.409Z,7.67
2023-02-05T12:41:36.179Z,4.13
2023-02-05T12:44:18.993Z,3.43
2023-02-05T12:47:10.007Z,5.33
2023-02-05T12:50:08.547Z,2.70
2023-02-05T12:53:20.949Z,4.37
2023-02-05T12:56:07.213Z,4.07
2023-02-05T12:58:42.556Z,3.10
2023-02-05T13:01:16.280Z,3.80
2023-02-05T13:03:48.560Z,4.83
2023-02-05T13:06:32.561Z,3.87
2023-02-05T13:09:20.036Z,4.23
2023-02-05T13:11:56.112Z,3.67
2023-02-05T13:14:36.501Z,3.90
2023-02-05T13:17:24.239Z,4.70
2023-02-05T13:19:59.405Z,3.03
2023-02-05T13:22:50.282Z,2.33
2023-02-05T13:25:54.084Z,4.43
2023-02-05T13:28:49.230Z,6.20
2023-02-05T13:31:20.890Z,3.23
2023-02-05T13:33:48.361Z,3.27
2023-02-05T13:36:23.849Z,5.33
2023-02-05T13:39:13.363Z,3.53
2023-02-05T13:42:01.421Z,2.73
2023-02-05T13:44:58.106Z,3.30
2023-02-05T13:48:02.290Z,3.33
2023-02-05T13:50:49.979Z,3.03
2023-02-05T13:53:53.016Z,3.03
2023-02-05T13:56:44.776Z,3.80
2023-02-05T13:59:38.976Z,3.90
2023-02-05T14:02:33.889Z,2.43
2023-02-05T14:05:05.174Z,4.97
2023-02-05T14:07:37.246Z,5.77
2023-02-05T14:10:05.877Z,4.13
2023-02-05T14:12:37.649Z,4.07
2023-02-05T14:15:16.866Z,3.67
2023-02-05T14:17:43.423Z,8.50
2023-02-05T14:20:37.672Z,6.27
2023-02-05T14:23:35.838Z,4.33
2023-02-05T14:26:05.226Z,2.40
2023-02-05T14:28:33.681Z,4.23
2023-02-05T14:31:03.651Z,4.90
2023-02-05T14:33:43.546Z,4.23
2023-02-05T14:36:16.928Z,2.50
2023-02-05T14:38:45.622Z,3.80
2023-02-05T14:41:20.948Z,2.20
2023-02-05T14:44:03.951Z,3.67
2023-02-05T14:46:45.298Z,2.33
2023-02-05T14:49:34.775Z,2.77
2023-02-05T14:52:03.160Z,2.77
2023-02-05T14:54:44.020Z,2.03
2023-02-05T14:57:24.175Z,2.50
2023-02-05T15:00:01.211Z,2.10
2023-02-05T15:02:55.558Z,2.70
2023-02-05T15:05:44.238Z,3.27
2023-02-05T15:08:16.600Z,3.33
2023-02-05T15:10:48.532Z,4.43
2023-02-05T15:13:20.094Z,3.87
2023-02-05T15:16:11.571Z,1.97
2023-02-05T15:18:59.255Z,3.63
2023-02-05T15:21:33.292Z,3.80
2023-02-05T15:24:06.059Z,4.00
2023-02-05T15:27:01.133Z,3.83
2023-02-05T15:29:37.503Z,3.33
2023-02-05T15:32:16.550Z,3.93
2023-02-05T15:34:49.796Z,4.17
2023-02-05T15:37:38.285Z,2.37
2023-02-05T15:40:20.037Z,4.03
2023-02-05T15:42:51.333Z,3.93
2023-02-05T15:45:33.694Z,2.77
2023-02-05T15:48:09.393Z,3.63
2023-02-05T15:51:17.077Z,4.23
2023-02-05T15:53:49.492Z,3.60
2023-02-05T15:56:35.287Z,3.30
2023-02-05T15:59:29.400Z,2.37
2023-02-05T16:02:18.608Z,2.80
2023-02-05T16:04:45.312Z,3.90
2023-02-05T16:07:30.594Z,3.30
2023-02-05T16:09:59.805Z,7.00
2023-02-05T16:12:26.558Z,4.43
2023-02-05T16:15:05.682Z,3.10
2023-02-05T16:17:39.395Z,3.30
2023-02-05T16:20:40.132Z,3.87
2023-02-05T16:23:12.804Z,3.13
2023-02-05T16:25:50.545Z,4.47
2023-02-05T16:28:22.662Z,4.33
2023-02-05T16:30:53.274Z,5.37
2023-02-05T16:33:29.875Z,3.57
2023-02-05T16:35:59.958Z,3.90
2023-02-05T16:38:28.219Z,4.33
2023-02-05T16:40:58.790Z,6.07
2023-02-05T16:43:25.324Z,3.43
2023-02-05T16:46:28.706Z,5.83
2023-02-05T16:48:58.916Z,8.30
2023-02-05T16:51:40.401Z,5.10
2023-02-05T16:54:12.742Z,4.93
2023-02-05T16:56:47.363Z,3.87
2023-02-05T16:59:20.273Z,5.67
2023-02-05T17:01:47.222Z,5.73
2023-02-05T17:04:28.678Z,5.03
2023-02-05T17:06:58.725Z,5.57
2023-02-05T17:09:39.550Z,4.90
2023-02-05T17:12:34.883Z,8.13
2023-02-05T17:15:09.934Z,4.33
2023-02-05T17:17:48.294Z,5.20
2023-02-05T17:20:25.250Z,3.63
2023-02-05T17:23:02.987Z,4.73
2023-02-05T17:25:51.183Z,4.63
2023-02-05T17:28:21.588Z,6.43
2023-02-05T17:30:50.004Z,5.57
2023-02-05T17:33:25.687Z,7.50
2023-02-05T17:35:52.685Z,4.57
2023-02-05T17:38:25.717Z,5.07
2023-02-05T17:41:12.374Z,5.67
2023-02-05T17:43:39.176Z,4.63
2023-02-05T17:46:12.416Z,6.37
2023-02-05T17:48:40.094Z,6.13
2023-02-05T17:51:06.900Z,4.70
2023-02-05T17:53:33.514Z,6.00
2023-02-05T17:56:00.151Z,5.93
2023-02-05T17:58:26.728Z,4.57
2023-02-05T18:00:54.491Z,3.93
2023-02-05T18:03:21.167Z,4.27
2023-02-05T18:05:47.724Z,6.27
2023-02-05T18:08:14.882Z,8.03
2023-02-05T18:10:41.461Z,5.73
2023-02-05T18:13:08.128Z,5.57
2023-02-05T18:15:34.734Z,3.37
2023-02-05T18:18:01.286Z,5.63
2023-02-05T18:20:27.866Z,6.07
2023-02-05T18:22:54.444Z,5.30
2023-02-05T18:25:20.985Z,8.47
2023-02-05T18:27:48.810Z,5.77
2023-02-05T18:30:15.619Z,7.40
2023-02-05T18:32:42.908Z,7.27
2023-02-05T18:35:14.197Z,7.20
2023-02-05T18:37:44.816Z,8.70
2023-02-05T18:40:13.580Z,10.30
2023-02-05T18:42:41.343Z,11.07
2023-02-05T18:45:08.782Z,13.20
2023-02-05T18:47:36.194Z,8.63
2023-02-05T18:50:02.755Z,6.30
2023-02-05T18:52:30.378Z,6.67
2023-02-05T18:54:57.301Z,7.40
2023-02-05T18:57:23.866Z,8.37
2023-02-05T18:59:50.525Z,8.13
2023-02-05T19:02:17.189Z,6.37
2023-02-05T19:04:45.424Z,9.13
2023-02-05T19:07:12.043Z,7.80
2023-02-05T19:09:38.655Z,7.57
2023-02-05T19:12:05.318Z,7.70
2023-02-05T19:14:32.007Z,9.43
2023-02-05T19:16:58.578Z,16.13
2023-02-05T19:19:26.003Z,12.17
2023-02-05T19:21:54.316Z,7.63
2023-02-05T19:24:21.621Z,10.70
2023-02-05T19:26:50.829Z,9.40
2023-02-05T19:29:19.954Z,10.70
2023-02-05T19:31:46.914Z,7.77
2023-02-05T19:34:13.775Z,9.40
2023-02-05T19:36:40.552Z,8.83
2023-02-05T19:39:10.567Z,13.30
2023-02-05T19:41:37.685Z,13.03
2023-02-05T19:44:07.588Z,10.93
2023-02-05T19:46:48.663Z,12.27
2023-02-05T19:49:18.454Z,12.23
2023-02-05T19:51:49.887Z,10.97
2023-02-05T19:54:17.102Z,10.20
2023-02-05T19:56:44.467Z,9.70
2023-02-05T19:59:11.441Z,9.97
2023-02-05T20:01:40.001Z,8.93
2023-02-05T20:04:25.926Z,11.00
2023-02-05T20:06:58.232Z,7.40
2023-02-05T20:09:28.299Z,9.27
2023-02-05T20:11:55.657Z,9.37
2023-02-05T20:14:23.433Z,7.80
2023-02-05T20:16:50.249Z,8.70
2023-02-05T20:19:17.337Z,9.30
2023-02-05T20:21:44.410Z,11.37
2023-02-05T20:24:11.057Z,7.47
2023-02-05T20:26:38.170Z,6.20
2023-02-05T20:29:24.549Z,8.27
2023-02-05T20:31:53.097Z,10.70
2023-02-05T20:34:25.545Z,10.03
2023-02-05T20:37:00.859Z,8.57
2023-02-05T20:39:29.228Z,8.13
2023-02-05T20:41:57.960Z,9.23
2023-02-05T20:44:30.176Z,8.87
2023-02-05T20:46:57.007Z,8.10
2023-02-05T20:49:24.133Z,9.70
2023-02-05T20:51:52.841Z,10.63
2023-02-05T20:54:19.877Z,10.90
2023-02-05T20:56:46.500Z,9.70
2023-02-05T20:59:13.117Z,12.30
2023-02-05T21:01:40.658Z,10.83
2023-02-05T21:04:09.252Z,8.70
2023-02-05T21:06:38.735Z,9.43
2023-02-05T21:09:06.566Z,10.70
2023-02-05T21:11:34.160Z,10.40
2023-02-05T21:14:00.930Z,10.13
2023-02-05T21:16:27.800Z,10.57
2023-02-05T21:18:55.466Z,10.77
2023-02-05T21:21:31.396Z,7.50
2023-02-05T21:24:01.204Z,12.97
2023-02-05T21:26:31.049Z,11.37
2023-02-05T21:29:00.053Z,12.33
2023-02-05T21:31:33.994Z,8.83
2023-02-05T21:34:02.024Z,10.83
2023-02-05T21:36:29.038Z,8.80
2023-02-05T21:38:56.445Z,9.83
2023-02-05T21:41:23.670Z,9.80
2023-02-05T21:43:54.729Z,8.40
2023-02-05T21:46:22.559Z,8.47
2023-02-05T21:48:51.710Z,9.97
2023-02-05T21:51:19.990Z,11.27
2023-02-05T21:53:46.736Z,8.57
2023-02-05T21:56:16.495Z,10.87
2023-02-05T21:58:43.371Z,9.90
2023-02-05T22:01:10.829Z,10.40
2023-02-05T22:03:37.752Z,9.93
2023-02-05T22:06:06.725Z,9.30
2023-02-05T22:08:38.346Z,8.77
2023-02-05T22:11:07.268Z,8.10
2023-02-05T22:13:39.338Z,10.30
2023-02-05T22:16:08.542Z,12.13
2023-02-05T22:18:36.253Z,10.43
2023-02-05T22:21:17.421Z,11.23
2023-02-05T22:23:48.717Z,10.90
2023-02-05T22:26:17.144Z,11.70
2023-02-05T22:28:43.778Z,11.20
2023-02-05T22:31:12.664Z,9.13
2023-02-05T22:33:40.954Z,9.77
2023-02-05T22:36:09.678Z,11.43
2023-02-05T22:38:38.740Z,9.87
2023-02-05T22:41:10.365Z,11.97
2023-02-05T22:43:37.289Z,8.87
2023-02-05T22:46:09.405Z,8.60
2023-02-05T22:48:37.109Z,9.70
2023-02-05T22:51:05.507Z,8.07
2023-02-05T22:53:32.714Z,12.07
2023-02-05T22:56:04.697Z,9.83
2023-02-05T22:58:31.618Z,10.20
2023-02-05T23:00:59.184Z,8.53
2023-02-05T23:03:25.841Z,9.90
2023-02-05T23:05:52.908Z,10.17
2023-02-05T23:08:19.461Z,9.90
2023-02-05T23:10:46.062Z,11.70
2023-02-05T23:13:12.682Z,11.40
2023-02-05T23:15:39.243Z,12.07
2023-02-05T23:18:05.823Z,12.23
2023-02-05T23:20:32.531Z,12.07
2023-02-05T23:22:59.092Z,9.17
2023-02-05T23:25:25.627Z,10.30
2023-02-05T23:27:52.261Z,8.60
2023-02-05T23:30:18.922Z,8.50
2023-02-05T23:32:45.510Z,7.17
2023-02-05T23:35:12.114Z,10.10
2023-02-05T23:37:38.953Z,8.93
2023-02-05T23:40:05.958Z,9.70
2023-02-05T23:42:32.522Z,8.63
2023-02-05T23:44:59.067Z,9.93
2023-02-05T23:47:25.620Z,11.53
2023-02-05T23:49:52.156Z,11.23
2023-02-05T23:52:18.698Z,9.67
2023-02-05T23:54:45.286Z,8.53
2023-02-05T23:57:11.870Z,8.10
2023-02-05T23:59:38.463Z,10.67
